sensor_id;sensor_type;location;lat;lon;timestamp;temperature;humidity
75457;SHT31;64036;48.266;14.192;2024-03-08T00:00:23;4.20;77.42
75457;SHT31;64036;48.266;14.192;2024-03-08T00:02:49;4.20;77.41
75457;SHT31;64036;48.266;14.192;2024-03-08T00:05:19;4.19;77.43
75457;SHT31;64036;48.266;14.192;2024-03-08T00:07:45;4.17;77.43
75457;SHT31;64036;48.266;14.192;2024-03-08T00:10:12;4.18;77.29
75457;SHT31;64036;48.266;14.192;2024-03-08T00:12:42;4.19;77.30
75457;SHT31;64036;48.266;14.192;2024-03-08T00:15:10;4.18;77.30
75457;SHT31;64036;48.266;14.192;2024-03-08T00:17:40;4.19;77.31
75457;SHT31;64036;48.266;14.192;2024-03-08T00:20:07;4.16;77.31
75457;SHT31;64036;48.266;14.192;2024-03-08T00:22:36;4.16;77.29
75457;SHT31;64036;48.266;14.192;2024-03-08T00:25:06;4.15;77.27
75457;SHT31;64036;48.266;14.192;2024-03-08T00:27:37;4.14;77.20
75457;SHT31;64036;48.266;14.192;2024-03-08T00:30:03;4.11;77.18
75457;SHT31;64036;48.266;14.192;2024-03-08T00:32:30;4.11;77.16
75457;SHT31;64036;48.266;14.192;2024-03-08T00:34:57;4.09;77.10
75457;SHT31;64036;48.266;14.192;2024-03-08T00:37:23;4.05;77.09
75457;SHT31;64036;48.266;14.192;2024-03-08T00:39:50;4.02;77.02
75457;SHT31;64036;48.266;14.192;2024-03-08T00:42:17;3.95;77.07
75457;SHT31;64036;48.266;14.192;2024-03-08T00:44:44;3.90;77.09
75457;SHT31;64036;48.266;14.192;2024-03-08T00:47:10;3.85;77.10
75457;SHT31;64036;48.266;14.192;2024-03-08T00:49:36;3.80;77.13
75457;SHT31;64036;48.266;14.192;2024-03-08T00:52:06;3.74;77.23
75457;SHT31;64036;48.266;14.192;2024-03-08T00:54:34;3.69;77.27
75457;SHT31;64036;48.266;14.192;2024-03-08T00:57:03;3.65;77.36
75457;SHT31;64036;48.266;14.192;2024-03-08T00:59:29;3.61;77.34
75457;SHT31;64036;48.266;14.192;2024-03-08T01:01:59;3.57;77.39
75457;SHT31;64036;48.266;14.192;2024-03-08T01:04:28;3.52;77.47
75457;SHT31;64036;48.266;14.192;2024-03-08T01:06:58;3.49;77.52
75457;SHT31;64036;48.266;14.192;2024-03-08T01:09:24;3.44;77.60
75457;SHT31;64036;48.266;14.192;2024-03-08T01:11:52;3.40;77.71
75457;SHT31;64036;48.266;14.192;2024-03-08T01:14:21;3.37;77.81
75457;SHT31;64036;48.266;14.192;2024-03-08T01:16:48;3.33;77.86
75457;SHT31;64036;48.266;14.192;2024-03-08T01:19:14;3.31;77.90
75457;SHT31;64036;48.266;14.192;2024-03-08T01:21:40;3.29;77.95
75457;SHT31;64036;48.266;14.192;2024-03-08T01:24:07;3.27;78.06
75457;SHT31;64036;48.266;14.192;2024-03-08T01:26:33;3.25;78.06
75457;SHT31;64036;48.266;14.192;2024-03-08T01:28:59;3.25;78.17
75457;SHT31;64036;48.266;14.192;2024-03-08T01:31:28;3.21;78.23
75457;SHT31;64036;48.266;14.192;2024-03-08T01:33:55;3.18;78.37
75457;SHT31;64036;48.266;14.192;2024-03-08T01:36:22;3.15;78.43
75457;SHT31;64036;48.266;14.192;2024-03-08T01:38:48;3.13;78.43
75457;SHT31;64036;48.266;14.192;2024-03-08T01:41:14;3.11;78.42
75457;SHT31;64036;48.266;14.192;2024-03-08T01:43:42;3.09;78.51
75457;SHT31;64036;48.266;14.192;2024-03-08T01:46:11;3.06;78.56
75457;SHT31;64036;48.266;14.192;2024-03-08T01:48:41;3.06;78.71
75457;SHT31;64036;48.266;14.192;2024-03-08T01:51:08;3.06;78.67
75457;SHT31;64036;48.266;14.192;2024-03-08T01:53:37;3.07;78.62
75457;SHT31;64036;48.266;14.192;2024-03-08T01:56:03;3.04;78.69
75457;SHT31;64036;48.266;14.192;2024-03-08T01:58:30;3.02;78.79
75457;SHT31;64036;48.266;14.192;2024-03-08T02:00:58;3.01;78.75
75457;SHT31;64036;48.266;14.192;2024-03-08T02:03:24;3.00;78.80
75457;SHT31;64036;48.266;14.192;2024-03-08T02:05:50;2.99;78.78
75457;SHT31;64036;48.266;14.192;2024-03-08T02:08:16;2.98;78.89
75457;SHT31;64036;48.266;14.192;2024-03-08T02:10:46;2.96;78.86
75457;SHT31;64036;48.266;14.192;2024-03-08T02:13:12;2.95;78.79
75457;SHT31;64036;48.266;14.192;2024-03-08T02:15:51;2.94;78.79
75457;SHT31;64036;48.266;14.192;2024-03-08T02:18:18;2.90;78.89
75457;SHT31;64036;48.266;14.192;2024-03-08T02:20:51;2.87;78.93
75457;SHT31;64036;48.266;14.192;2024-03-08T02:23:21;2.84;78.95
75457;SHT31;64036;48.266;14.192;2024-03-08T02:25:49;2.82;78.96
75457;SHT31;64036;48.266;14.192;2024-03-08T02:28:15;2.80;79.01
75457;SHT31;64036;48.266;14.192;2024-03-08T02:30:41;2.77;79.07
75457;SHT31;64036;48.266;14.192;2024-03-08T02:33:07;2.74;79.18
75457;SHT31;64036;48.266;14.192;2024-03-08T02:35:36;2.73;79.20
75457;SHT31;64036;48.266;14.192;2024-03-08T02:38:02;2.70;79.22
75457;SHT31;64036;48.266;14.192;2024-03-08T02:40:29;2.70;79.20
75457;SHT31;64036;48.266;14.192;2024-03-08T02:42:55;2.68;79.17
75457;SHT31;64036;48.266;14.192;2024-03-08T02:45:21;2.67;79.12
75457;SHT31;64036;48.266;14.192;2024-03-08T02:47:47;2.66;79.20
75457;SHT31;64036;48.266;14.192;2024-03-08T02:50:16;2.64;79.25
75457;SHT31;64036;48.266;14.192;2024-03-08T02:52:44;2.63;79.26
75457;SHT31;64036;48.266;14.192;2024-03-08T02:55:12;2.60;79.39
75457;SHT31;64036;48.266;14.192;2024-03-08T02:57:41;2.59;79.40
75457;SHT31;64036;48.266;14.192;2024-03-08T03:00:08;2.58;79.38
75457;SHT31;64036;48.266;14.192;2024-03-08T03:02:35;2.56;79.43
75457;SHT31;64036;48.266;14.192;2024-03-08T03:05:02;2.54;79.54
75457;SHT31;64036;48.266;14.192;2024-03-08T03:07:32;2.52;79.58
75457;SHT31;64036;48.266;14.192;2024-03-08T03:09:59;2.51;79.63
75457;SHT31;64036;48.266;14.192;2024-03-08T03:12:28;2.51;79.59
75457;SHT31;64036;48.266;14.192;2024-03-08T03:14:55;2.49;79.57
75457;SHT31;64036;48.266;14.192;2024-03-08T03:17:24;2.47;79.56
75457;SHT31;64036;48.266;14.192;2024-03-08T03:19:51;2.44;79.58
75457;SHT31;64036;48.266;14.192;2024-03-08T03:22:17;2.41;79.54
75457;SHT31;64036;48.266;14.192;2024-03-08T03:24:44;2.40;79.58
75457;SHT31;64036;48.266;14.192;2024-03-08T03:27:14;2.37;79.53
75457;SHT31;64036;48.266;14.192;2024-03-08T03:29:40;2.36;79.50
75457;SHT31;64036;48.266;14.192;2024-03-08T03:32:13;2.34;79.49
75457;SHT31;64036;48.266;14.192;2024-03-08T03:34:40;2.33;79.50
75457;SHT31;64036;48.266;14.192;2024-03-08T03:37:08;2.31;79.50
75457;SHT31;64036;48.266;14.192;2024-03-08T03:39:37;2.30;79.50
75457;SHT31;64036;48.266;14.192;2024-03-08T03:42:18;2.28;79.50
75457;SHT31;64036;48.266;14.192;2024-03-08T03:44:45;2.25;79.56
75457;SHT31;64036;48.266;14.192;2024-03-08T03:47:12;2.23;79.55
75457;SHT31;64036;48.266;14.192;2024-03-08T03:49:42;2.20;79.61
75457;SHT31;64036;48.266;14.192;2024-03-08T03:52:11;2.18;79.62
75457;SHT31;64036;48.266;14.192;2024-03-08T03:54:40;2.15;79.70
75457;SHT31;64036;48.266;14.192;2024-03-08T03:57:06;2.13;79.69
75457;SHT31;64036;48.266;14.192;2024-03-08T03:59:33;2.12;79.72
75457;SHT31;64036;48.266;14.192;2024-03-08T04:01:58;2.11;79.72
75457;SHT31;64036;48.266;14.192;2024-03-08T04:04:24;2.11;79.70
75457;SHT31;64036;48.266;14.192;2024-03-08T04:06:50;2.11;79.61
75457;SHT31;64036;48.266;14.192;2024-03-08T04:09:16;2.11;79.60
75457;SHT31;64036;48.266;14.192;2024-03-08T04:11:44;2.12;79.62
75457;SHT31;64036;48.266;14.192;2024-03-08T04:14:10;2.12;79.52
75457;SHT31;64036;48.266;14.192;2024-03-08T04:16:37;2.12;79.48
75457;SHT31;64036;48.266;14.192;2024-03-08T04:19:03;2.15;79.39
75457;SHT31;64036;48.266;14.192;2024-03-08T04:21:32;2.14;79.31
75457;SHT31;64036;48.266;14.192;2024-03-08T04:23:58;2.14;79.22
75457;SHT31;64036;48.266;14.192;2024-03-08T04:26:27;2.13;79.24
75457;SHT31;64036;48.266;14.192;2024-03-08T04:28:53;2.13;79.24
75457;SHT31;64036;48.266;14.192;2024-03-08T04:31:18;2.13;79.20
75457;SHT31;64036;48.266;14.192;2024-03-08T04:33:44;2.13;79.17
75457;SHT31;64036;48.266;14.192;2024-03-08T04:36:10;2.14;79.09
75457;SHT31;64036;48.266;14.192;2024-03-08T04:38:38;2.15;79.03
75457;SHT31;64036;48.266;14.192;2024-03-08T04:41:06;2.16;79.00
75457;SHT31;64036;48.266;14.192;2024-03-08T04:43:33;2.15;79.02
75457;SHT31;64036;48.266;14.192;2024-03-08T04:45:59;2.16;78.98
75457;SHT31;64036;48.266;14.192;2024-03-08T04:48:31;2.16;78.94
75457;SHT31;64036;48.266;14.192;2024-03-08T04:50:57;2.16;78.98
75457;SHT31;64036;48.266;14.192;2024-03-08T04:53:23;2.18;79.00
75457;SHT31;64036;48.266;14.192;2024-03-08T04:55:49;2.18;79.00
75457;SHT31;64036;48.266;14.192;2024-03-08T04:58:15;2.19;78.99
75457;SHT31;64036;48.266;14.192;2024-03-08T05:00:41;2.19;79.02
75457;SHT31;64036;48.266;14.192;2024-03-08T05:03:07;2.19;79.03
75457;SHT31;64036;48.266;14.192;2024-03-08T05:05:32;2.22;79.07
75457;SHT31;64036;48.266;14.192;2024-03-08T05:07:58;2.24;79.04
75457;SHT31;64036;48.266;14.192;2024-03-08T05:10:26;2.26;79.07
75457;SHT31;64036;48.266;14.192;2024-03-08T05:12:55;2.27;79.12
75457;SHT31;64036;48.266;14.192;2024-03-08T05:15:21;2.27;79.14
75457;SHT31;64036;48.266;14.192;2024-03-08T05:17:47;2.26;79.19
75457;SHT31;64036;48.266;14.192;2024-03-08T05:20:12;2.24;79.22
75457;SHT31;64036;48.266;14.192;2024-03-08T05:22:38;2.25;79.21
75457;SHT31;64036;48.266;14.192;2024-03-08T05:25:05;2.26;79.19
75457;SHT31;64036;48.266;14.192;2024-03-08T05:27:33;2.26;79.14
75457;SHT31;64036;48.266;14.192;2024-03-08T05:30:02;2.26;79.18
75457;SHT31;64036;48.266;14.192;2024-03-08T05:32:32;2.26;79.12
75457;SHT31;64036;48.266;14.192;2024-03-08T05:34:58;2.26;79.12
75457;SHT31;64036;48.266;14.192;2024-03-08T05:37:24;2.26;79.10
75457;SHT31;64036;48.266;14.192;2024-03-08T05:39:49;2.26;79.08
75457;SHT31;64036;48.266;14.192;2024-03-08T05:42:24;2.27;79.08
75457;SHT31;64036;48.266;14.192;2024-03-08T05:44:49;2.26;79.09
75457;SHT31;64036;48.266;14.192;2024-03-08T05:47:15;2.26;79.10
75457;SHT31;64036;48.266;14.192;2024-03-08T05:49:44;2.27;79.08
75457;SHT31;64036;48.266;14.192;2024-03-08T05:52:10;2.27;79.10
75457;SHT31;64036;48.266;14.192;2024-03-08T05:54:36;2.29;79.18
75457;SHT31;64036;48.266;14.192;2024-03-08T05:57:02;2.32;79.17
75457;SHT31;64036;48.266;14.192;2024-03-08T05:59:28;2.37;79.09
75457;SHT31;64036;48.266;14.192;2024-03-08T06:01:57;2.44;78.99
75457;SHT31;64036;48.266;14.192;2024-03-08T06:04:23;2.54;78.87
75457;SHT31;64036;48.266;14.192;2024-03-08T06:06:49;2.68;78.71
75457;SHT31;64036;48.266;14.192;2024-03-08T06:09:17;2.82;78.43
75457;SHT31;64036;48.266;14.192;2024-03-08T06:11:48;3.03;78.20
75457;SHT31;64036;48.266;14.192;2024-03-08T06:14:14;3.31;77.84
75457;SHT31;64036;48.266;14.192;2024-03-08T06:16:44;3.67;77.22
75457;SHT31;64036;48.266;14.192;2024-03-08T06:19:10;4.09;76.35
75457;SHT31;64036;48.266;14.192;2024-03-08T06:21:37;4.57;75.83
75457;SHT31;64036;48.266;14.192;2024-03-08T06:24:02;5.06;75.10
75457;SHT31;64036;48.266;14.192;2024-03-08T06:26:28;5.46;73.81
75457;SHT31;64036;48.266;14.192;2024-03-08T06:28:54;5.86;72.75
75457;SHT31;64036;48.266;14.192;2024-03-08T06:31:20;6.20;71.43
75457;SHT31;64036;48.266;14.192;2024-03-08T06:33:46;6.48;70.40
75457;SHT31;64036;48.266;14.192;2024-03-08T06:36:16;6.88;69.89
75457;SHT31;64036;48.266;14.192;2024-03-08T06:38:46;7.14;67.96
75457;SHT31;64036;48.266;14.192;2024-03-08T06:41:13;7.38;67.50
75457;SHT31;64036;48.266;14.192;2024-03-08T06:43:46;7.66;65.97
75457;SHT31;64036;48.266;14.192;2024-03-08T06:46:16;7.99;65.99
75457;SHT31;64036;48.266;14.192;2024-03-08T06:48:43;8.46;64.84
75457;SHT31;64036;48.266;14.192;2024-03-08T06:51:10;8.85;63.47
75457;SHT31;64036;48.266;14.192;2024-03-08T06:53:36;9.30;62.89
75457;SHT31;64036;48.266;14.192;2024-03-08T06:56:03;9.71;61.21
75457;SHT31;64036;48.266;14.192;2024-03-08T06:58:29;9.92;59.68
75457;SHT31;64036;48.266;14.192;2024-03-08T07:00:55;9.92;58.66
75457;SHT31;64036;48.266;14.192;2024-03-08T07:03:23;10.28;59.42
75457;SHT31;64036;48.266;14.192;2024-03-08T07:05:49;10.79;58.14
75457;SHT31;64036;48.266;14.192;2024-03-08T07:08:15;11.34;56.62
75457;SHT31;64036;48.266;14.192;2024-03-08T07:10:41;11.65;54.72
75457;SHT31;64036;48.266;14.192;2024-03-08T07:13:10;11.87;54.86
75457;SHT31;64036;48.266;14.192;2024-03-08T07:15:35;12.31;54.48
75457;SHT31;64036;48.266;14.192;2024-03-08T07:18:01;12.54;53.44
75457;SHT31;64036;48.266;14.192;2024-03-08T07:20:27;12.82;53.19
75457;SHT31;64036;48.266;14.192;2024-03-08T07:22:53;13.15;52.86
75457;SHT31;64036;48.266;14.192;2024-03-08T07:25:19;13.62;51.14
75457;SHT31;64036;48.266;14.192;2024-03-08T07:27:50;13.72;50.07
75457;SHT31;64036;48.266;14.192;2024-03-08T07:30:17;13.63;49.46
75457;SHT31;64036;48.266;14.192;2024-03-08T07:33:03;13.83;49.23
75457;SHT31;64036;48.266;14.192;2024-03-08T07:35:31;13.88;48.05
75457;SHT31;64036;48.266;14.192;2024-03-08T07:37:57;13.95;48.26
75457;SHT31;64036;48.266;14.192;2024-03-08T07:40:25;14.44;48.66
75457;SHT31;64036;48.266;14.192;2024-03-08T07:42:53;14.84;46.99
75457;SHT31;64036;48.266;14.192;2024-03-08T07:45:19;15.09;46.66
75457;SHT31;64036;48.266;14.192;2024-03-08T07:47:47;15.14;45.54
75457;SHT31;64036;48.266;14.192;2024-03-08T07:50:12;15.24;45.61
75457;SHT31;64036;48.266;14.192;2024-03-08T07:52:41;15.36;45.73
75457;SHT31;64036;48.266;14.192;2024-03-08T07:55:07;15.58;45.30
75457;SHT31;64036;48.266;14.192;2024-03-08T07:57:35;15.71;44.87
75457;SHT31;64036;48.266;14.192;2024-03-08T08:00:04;15.94;44.70
75457;SHT31;64036;48.266;14.192;2024-03-08T08:02:33;16.13;44.01
75457;SHT31;64036;48.266;14.192;2024-03-08T08:05:00;16.38;43.19
75457;SHT31;64036;48.266;14.192;2024-03-08T08:07:26;16.39;43.29
75457;SHT31;64036;48.266;14.192;2024-03-08T08:09:52;16.54;42.99
75457;SHT31;64036;48.266;14.192;2024-03-08T08:12:18;16.50;42.63
75457;SHT31;64036;48.266;14.192;2024-03-08T08:14:44;16.47;42.69
75457;SHT31;64036;48.266;14.192;2024-03-08T08:17:10;16.58;42.52
75457;SHT31;64036;48.266;14.192;2024-03-08T08:19:37;16.65;42.45
75457;SHT31;64036;48.266;14.192;2024-03-08T08:22:03;17.06;42.63
75457;SHT31;64036;48.266;14.192;2024-03-08T08:24:29;17.33;41.56
75457;SHT31;64036;48.266;14.192;2024-03-08T08:26:55;16.99;41.71
75457;SHT31;64036;48.266;14.192;2024-03-08T08:29:21;16.18;42.83
75457;SHT31;64036;48.266;14.192;2024-03-08T08:31:48;16.04;43.53
75457;SHT31;64036;48.266;14.192;2024-03-08T08:34:15;16.09;42.72
75457;SHT31;64036;48.266;14.192;2024-03-08T08:36:44;15.88;42.63
75457;SHT31;64036;48.266;14.192;2024-03-08T08:39:10;15.01;43.92
75457;SHT31;64036;48.266;14.192;2024-03-08T08:41:38;13.98;45.54
75457;SHT31;64036;48.266;14.192;2024-03-08T08:44:06;13.64;46.26
75457;SHT31;64036;48.266;14.192;2024-03-08T08:46:35;13.19;47.69
75457;SHT31;64036;48.266;14.192;2024-03-08T08:49:03;13.55;47.20
75457;SHT31;64036;48.266;14.192;2024-03-08T08:51:34;14.13;46.87
75457;SHT31;64036;48.266;14.192;2024-03-08T08:53:59;14.51;45.57
75457;SHT31;64036;48.266;14.192;2024-03-08T08:56:25;14.72;45.43
75457;SHT31;64036;48.266;14.192;2024-03-08T08:58:51;14.47;44.90
75457;SHT31;64036;48.266;14.192;2024-03-08T09:01:20;14.21;45.44
75457;SHT31;64036;48.266;14.192;2024-03-08T09:03:46;14.50;45.23
75457;SHT31;64036;48.266;14.192;2024-03-08T09:06:12;14.94;45.02
75457;SHT31;64036;48.266;14.192;2024-03-08T09:08:41;15.02;45.07
75457;SHT31;64036;48.266;14.192;2024-03-08T09:11:09;14.84;44.47
75457;SHT31;64036;48.266;14.192;2024-03-08T09:13:35;14.83;44.80
75457;SHT31;64036;48.266;14.192;2024-03-08T09:16:02;14.45;45.65
75457;SHT31;64036;48.266;14.192;2024-03-08T09:18:30;14.57;45.83
75457;SHT31;64036;48.266;14.192;2024-03-08T09:20:57;14.30;45.97
75457;SHT31;64036;48.266;14.192;2024-03-08T09:23:25;14.02;46.34
75457;SHT31;64036;48.266;14.192;2024-03-08T09:25:55;13.78;46.47
75457;SHT31;64036;48.266;14.192;2024-03-08T09:28:25;13.28;46.84
75457;SHT31;64036;48.266;14.192;2024-03-08T09:30:52;13.38;46.99
75457;SHT31;64036;48.266;14.192;2024-03-08T09:33:18;13.66;46.82
75457;SHT31;64036;48.266;14.192;2024-03-08T09:35:47;14.07;46.23
75457;SHT31;64036;48.266;14.192;2024-03-08T09:38:14;14.35;46.24
75457;SHT31;64036;48.266;14.192;2024-03-08T09:40:43;14.38;45.79
75457;SHT31;64036;48.266;14.192;2024-03-08T09:43:09;14.24;44.87
75457;SHT31;64036;48.266;14.192;2024-03-08T09:45:38;13.84;46.09
75457;SHT31;64036;48.266;14.192;2024-03-08T09:48:10;13.49;47.45
75457;SHT31;64036;48.266;14.192;2024-03-08T09:50:40;13.48;46.71
75457;SHT31;64036;48.266;14.192;2024-03-08T09:53:06;13.46;47.37
75457;SHT31;64036;48.266;14.192;2024-03-08T09:55:38;13.37;47.10
75457;SHT31;64036;48.266;14.192;2024-03-08T09:58:14;13.20;47.92
75457;SHT31;64036;48.266;14.192;2024-03-08T10:00:52;13.25;47.36
75457;SHT31;64036;48.266;14.192;2024-03-08T10:03:19;13.38;47.07
75457;SHT31;64036;48.266;14.192;2024-03-08T10:05:48;13.38;47.15
75457;SHT31;64036;48.266;14.192;2024-03-08T10:08:13;13.41;47.54
75457;SHT31;64036;48.266;14.192;2024-03-08T10:10:39;13.38;47.00
75457;SHT31;64036;48.266;14.192;2024-03-08T10:13:09;13.29;46.69
75457;SHT31;64036;48.266;14.192;2024-03-08T10:15:38;13.33;47.04
75457;SHT31;64036;48.266;14.192;2024-03-08T10:18:05;13.32;46.56
75457;SHT31;64036;48.266;14.192;2024-03-08T10:20:32;13.33;47.01
75457;SHT31;64036;48.266;14.192;2024-03-08T10:23:01;13.00;46.95
75457;SHT31;64036;48.266;14.192;2024-03-08T10:25:30;12.84;48.21
75457;SHT31;64036;48.266;14.192;2024-03-08T10:27:56;12.88;48.43
75457;SHT31;64036;48.266;14.192;2024-03-08T10:30:23;12.84;47.77
75457;SHT31;64036;48.266;14.192;2024-03-08T10:32:49;12.87;48.23
75457;SHT31;64036;48.266;14.192;2024-03-08T10:35:15;12.85;48.42
75457;SHT31;64036;48.266;14.192;2024-03-08T10:37:45;12.86;48.43
75457;SHT31;64036;48.266;14.192;2024-03-08T10:40:18;12.83;49.05
75457;SHT31;64036;48.266;14.192;2024-03-08T10:42:55;12.90;48.56
75457;SHT31;64036;48.266;14.192;2024-03-08T10:50:56;13.03;48.55
75457;SHT31;64036;48.266;14.192;2024-03-08T10:53:24;12.99;48.69
75457;SHT31;64036;48.266;14.192;2024-03-08T10:55:52;12.90;48.19
75457;SHT31;64036;48.266;14.192;2024-03-08T10:58:26;12.71;48.43
75457;SHT31;64036;48.266;14.192;2024-03-08T11:00:55;12.64;49.02
75457;SHT31;64036;48.266;14.192;2024-03-08T11:06:07;12.23;48.99
75457;SHT31;64036;48.266;14.192;2024-03-08T11:08:37;12.15;49.11
75457;SHT31;64036;48.266;14.192;2024-03-08T11:11:04;12.19;49.38
75457;SHT31;64036;48.266;14.192;2024-03-08T11:13:42;12.24;49.00
75457;SHT31;64036;48.266;14.192;2024-03-08T11:16:11;12.10;48.74
75457;SHT31;64036;48.266;14.192;2024-03-08T11:18:58;12.01;49.36
75457;SHT31;64036;48.266;14.192;2024-03-08T11:21:29;12.07;50.27
75457;SHT31;64036;48.266;14.192;2024-03-08T11:24:08;12.02;50.39
75457;SHT31;64036;48.266;14.192;2024-03-08T11:26:38;11.95;49.97
75457;SHT31;64036;48.266;14.192;2024-03-08T11:29:50;11.97;50.91
75457;SHT31;64036;48.266;14.192;2024-03-08T11:32:16;11.92;50.63
75457;SHT31;64036;48.266;14.192;2024-03-08T11:34:45;11.89;49.86
75457;SHT31;64036;48.266;14.192;2024-03-08T11:37:18;11.92;49.99
75457;SHT31;64036;48.266;14.192;2024-03-08T11:39:49;12.08;50.67
75457;SHT31;64036;48.266;14.192;2024-03-08T11:42:17;12.12;51.12
75457;SHT31;64036;48.266;14.192;2024-03-08T11:44:45;12.08;51.31
75457;SHT31;64036;48.266;14.192;2024-03-08T11:47:13;12.08;50.95
75457;SHT31;64036;48.266;14.192;2024-03-08T11:49:41;12.10;49.55
75457;SHT31;64036;48.266;14.192;2024-03-08T11:52:12;12.02;49.48
75457;SHT31;64036;48.266;14.192;2024-03-08T11:54:40;12.14;51.35
75457;SHT31;64036;48.266;14.192;2024-03-08T11:57:25;12.22;50.66
75457;SHT31;64036;48.266;14.192;2024-03-08T11:59:54;12.21;50.21
75457;SHT31;64036;48.266;14.192;2024-03-08T12:02:22;12.15;50.44
75457;SHT31;64036;48.266;14.192;2024-03-08T12:04:55;12.06;49.71
75457;SHT31;64036;48.266;14.192;2024-03-08T12:07:25;11.90;49.84
75457;SHT31;64036;48.266;14.192;2024-03-08T12:12:47;11.90;51.15
75457;SHT31;64036;48.266;14.192;2024-03-08T12:15:16;11.80;50.19
75457;SHT31;64036;48.266;14.192;2024-03-08T12:17:44;11.67;50.56
75457;SHT31;64036;48.266;14.192;2024-03-08T12:20:25;11.74;51.88
75457;SHT31;64036;48.266;14.192;2024-03-08T12:22:56;11.67;50.76
75457;SHT31;64036;48.266;14.192;2024-03-08T12:25:26;11.72;51.47
75457;SHT31;64036;48.266;14.192;2024-03-08T12:27:55;11.92;52.59
75457;SHT31;64036;48.266;14.192;2024-03-08T12:30:23;12.05;51.93
75457;SHT31;64036;48.266;14.192;2024-03-08T12:32:57;12.08;51.58
75457;SHT31;64036;48.266;14.192;2024-03-08T12:35:26;12.16;51.65
75457;SHT31;64036;48.266;14.192;2024-03-08T12:37:55;12.08;51.81
75457;SHT31;64036;48.266;14.192;2024-03-08T12:40:29;12.02;50.85
75457;SHT31;64036;48.266;14.192;2024-03-08T12:43:00;11.99;51.00
75457;SHT31;64036;48.266;14.192;2024-03-08T12:45:27;11.98;51.09
75457;SHT31;64036;48.266;14.192;2024-03-08T12:47:54;11.96;51.11
75457;SHT31;64036;48.266;14.192;2024-03-08T12:50:22;12.03;51.23
75457;SHT31;64036;48.266;14.192;2024-03-08T12:52:52;12.06;51.05
75457;SHT31;64036;48.266;14.192;2024-03-08T12:55:18;12.01;50.24
75457;SHT31;64036;48.266;14.192;2024-03-08T12:57:44;11.89;50.11
75457;SHT31;64036;48.266;14.192;2024-03-08T13:00:12;11.82;51.72
75457;SHT31;64036;48.266;14.192;2024-03-08T13:02:44;11.87;52.10
75457;SHT31;64036;48.266;14.192;2024-03-08T13:05:15;11.98;52.22
75457;SHT31;64036;48.266;14.192;2024-03-08T13:07:41;12.12;52.70
75457;SHT31;64036;48.266;14.192;2024-03-08T13:10:11;12.06;51.62
75457;SHT31;64036;48.266;14.192;2024-03-08T13:12:44;11.95;50.78
75457;SHT31;64036;48.266;14.192;2024-03-08T13:15:10;11.95;51.41
75457;SHT31;64036;48.266;14.192;2024-03-08T13:17:40;11.91;50.61
75457;SHT31;64036;48.266;14.192;2024-03-08T13:20:07;11.81;50.97
75457;SHT31;64036;48.266;14.192;2024-03-08T13:22:34;11.73;51.67
75457;SHT31;64036;48.266;14.192;2024-03-08T13:25:01;11.71;51.63
75457;SHT31;64036;48.266;14.192;2024-03-08T13:27:28;11.65;51.70
75457;SHT31;64036;48.266;14.192;2024-03-08T13:29:54;11.58;50.98
75457;SHT31;64036;48.266;14.192;2024-03-08T13:32:19;11.59;51.87
75457;SHT31;64036;48.266;14.192;2024-03-08T13:34:45;11.55;51.68
75457;SHT31;64036;48.266;14.192;2024-03-08T13:37:16;11.55;51.49
75457;SHT31;64036;48.266;14.192;2024-03-08T13:39:42;11.58;52.05
75457;SHT31;64036;48.266;14.192;2024-03-08T13:42:11;11.65;52.44
75457;SHT31;64036;48.266;14.192;2024-03-08T13:44:47;11.63;52.30
75457;SHT31;64036;48.266;14.192;2024-03-08T13:47:18;11.58;52.31
75457;SHT31;64036;48.266;14.192;2024-03-08T13:49:44;11.53;52.39
75457;SHT31;64036;48.266;14.192;2024-03-08T13:52:10;11.57;52.58
75457;SHT31;64036;48.266;14.192;2024-03-08T13:54:37;11.50;52.27
75457;SHT31;64036;48.266;14.192;2024-03-08T13:57:03;11.50;52.71
75457;SHT31;64036;48.266;14.192;2024-03-08T13:59:32;11.49;52.45
75457;SHT31;64036;48.266;14.192;2024-03-08T14:02:00;11.44;52.20
75457;SHT31;64036;48.266;14.192;2024-03-08T14:04:30;11.42;52.52
75457;SHT31;64036;48.266;14.192;2024-03-08T14:06:56;11.40;52.27
75457;SHT31;64036;48.266;14.192;2024-03-08T14:09:26;11.42;51.99
75457;SHT31;64036;48.266;14.192;2024-03-08T14:11:54;11.38;51.90
75457;SHT31;64036;48.266;14.192;2024-03-08T14:14:23;11.34;52.74
75457;SHT31;64036;48.266;14.192;2024-03-08T14:16:49;11.30;52.59
75457;SHT31;64036;48.266;14.192;2024-03-08T14:19:20;11.25;53.35
75457;SHT31;64036;48.266;14.192;2024-03-08T14:21:46;11.23;53.03
75457;SHT31;64036;48.266;14.192;2024-03-08T14:24:17;11.20;53.15
75457;SHT31;64036;48.266;14.192;2024-03-08T14:26:43;11.21;53.65
75457;SHT31;64036;48.266;14.192;2024-03-08T14:29:09;11.24;53.84
75457;SHT31;64036;48.266;14.192;2024-03-08T14:31:36;11.26;54.15
75457;SHT31;64036;48.266;14.192;2024-03-08T14:34:02;11.28;54.42
75457;SHT31;64036;48.266;14.192;2024-03-08T14:36:31;11.23;53.51
75457;SHT31;64036;48.266;14.192;2024-03-08T14:38:57;11.22;53.89
75457;SHT31;64036;48.266;14.192;2024-03-08T14:41:22;11.18;53.81
75457;SHT31;64036;48.266;14.192;2024-03-08T14:43:48;11.08;53.28
75457;SHT31;64036;48.266;14.192;2024-03-08T14:46:14;11.03;52.82
75457;SHT31;64036;48.266;14.192;2024-03-08T14:48:51;10.96;53.44
75457;SHT31;64036;48.266;14.192;2024-03-08T14:51:21;10.90;53.28
75457;SHT31;64036;48.266;14.192;2024-03-08T14:53:51;10.84;53.14
75457;SHT31;64036;48.266;14.192;2024-03-08T14:56:19;10.77;53.76
75457;SHT31;64036;48.266;14.192;2024-03-08T14:58:46;10.76;53.40
75457;SHT31;64036;48.266;14.192;2024-03-08T15:01:14;10.69;53.17
75457;SHT31;64036;48.266;14.192;2024-03-08T15:03:44;10.63;53.59
75457;SHT31;64036;48.266;14.192;2024-03-08T15:06:10;10.57;53.92
75457;SHT31;64036;48.266;14.192;2024-03-08T15:08:37;10.60;54.12
75457;SHT31;64036;48.266;14.192;2024-03-08T15:11:05;10.56;53.53
75457;SHT31;64036;48.266;14.192;2024-03-08T15:13:32;10.52;53.49
75457;SHT31;64036;48.266;14.192;2024-03-08T15:16:09;10.49;54.05
75457;SHT31;64036;48.266;14.192;2024-03-08T15:18:43;10.43;54.22
75457;SHT31;64036;48.266;14.192;2024-03-08T15:21:13;10.34;53.63
75457;SHT31;64036;48.266;14.192;2024-03-08T15:23:52;10.28;53.82
75457;SHT31;64036;48.266;14.192;2024-03-08T15:26:21;10.20;53.25
75457;SHT31;64036;48.266;14.192;2024-03-08T15:28:47;10.17;54.23
75457;SHT31;64036;48.266;14.192;2024-03-08T15:31:16;10.11;54.09
75457;SHT31;64036;48.266;14.192;2024-03-08T15:33:44;10.05;54.23
75457;SHT31;64036;48.266;14.192;2024-03-08T15:36:10;9.98;54.02
75457;SHT31;64036;48.266;14.192;2024-03-08T15:38:39;9.93;54.35